sensor_id;sensor_type;location;lat;lon;timestamp;P1;durP1;ratioP1;P2;durP2;ratioP2
82473;SDS011;72350;53.232;6.556;2023-11-21T00:00:58;15.40;;;5.05;;
82473;SDS011;72350;53.232;6.556;2023-11-21T00:03:27;16.98;;;4.07;;
82473;SDS011;72350;53.232;6.556;2023-11-21T00:05:56;17.17;;;4.65;;
82473;SDS011;72350;53.232;6.556;2023-11-21T00:08:25;16.02;;;4.22;;
82473;SDS011;72350;53.232;6.556;2023-11-21T00:10:53;14.65;;;4.60;;
82473;SDS011;72350;53.232;6.556;2023-11-21T00:13:21;16.15;;;5.32;;
82473;SDS011;72350;53.232;6.556;2023-11-21T00:15:49;19.67;;;5.50;;
82473;SDS011;72350;53.232;6.556;2023-11-21T00:18:17;21.38;;;4.60;;
82473;SDS011;72350;53.232;6.556;2023-11-21T00:20:45;16.63;;;4.13;;
82473;SDS011;72350;53.232;6.556;2023-11-21T00:23:13;19.75;;;5.63;;
82473;SDS011;72350;53.232;6.556;2023-11-21T00:25:42;17.40;;;4.78;;
82473;SDS011;72350;53.232;6.556;2023-11-21T00:28:10;17.02;;;5.07;;
82473;SDS011;72350;53.232;6.556;2023-11-21T00:30:38;26.67;;;5.57;;
82473;SDS011;72350;53.232;6.556;2023-11-21T00:33:06;21.90;;;6.15;;
82473;SDS011;72350;53.232;6.556;2023-11-21T00:35:34;19.80;;;4.93;;
82473;SDS011;72350;53.232;6.556;2023-11-21T00:38:02;24.67;;;5.95;;
82473;SDS011;72350;53.232;6.556;2023-11-21T00:40:31;23.40;;;5.13;;
82473;SDS011;72350;53.232;6.556;2023-11-21T00:43:01;19.58;;;5.13;;
82473;SDS011;72350;53.232;6.556;2023-11-21T00:45:31;16.63;;;4.93;;
82473;SDS011;72350;53.232;6.556;2023-11-21T00:47:59;19.75;;;5.28;;
82473;SDS011;72350;53.232;6.556;2023-11-21T00:50:27;14.93;;;4.75;;
82473;SDS011;72350;53.232;6.556;2023-11-21T00:52:55;25.88;;;6.22;;
82473;SDS011;72350;53.232;6.556;2023-11-21T00:55:23;19.92;;;5.53;;
82473;SDS011;72350;53.232;6.556;2023-11-21T00:57:51;19.52;;;6.10;;
82473;SDS011;72350;53.232;6.556;2023-11-21T01:00:20;25.70;;;6.18;;
82473;SDS011;72350;53.232;6.556;2023-11-21T01:02:49;16.45;;;4.93;;
82473;SDS011;72350;53.232;6.556;2023-11-21T01:05:17;21.35;;;5.60;;
82473;SDS011;72350;53.232;6.556;2023-11-21T01:07:46;18.77;;;4.97;;
82473;SDS011;72350;53.232;6.556;2023-11-21T01:10:14;22.02;;;6.43;;
82473;SDS011;72350;53.232;6.556;2023-11-21T01:12:43;25.63;;;5.70;;
82473;SDS011;72350;53.232;6.556;2023-11-21T01:15:11;18.38;;;5.32;;
82473;SDS011;72350;53.232;6.556;2023-11-21T01:17:40;17.92;;;5.95;;
82473;SDS011;72350;53.232;6.556;2023-11-21T01:20:09;22.55;;;6.43;;
82473;SDS011;72350;53.232;6.556;2023-11-21T01:22:40;19.60;;;5.97;;
82473;SDS011;72350;53.232;6.556;2023-11-21T01:25:08;24.67;;;6.35;;
82473;SDS011;72350;53.232;6.556;2023-11-21T01:27:37;24.02;;;6.15;;
82473;SDS011;72350;53.232;6.556;2023-11-21T01:30:05;25.20;;;7.55;;
82473;SDS011;72350;53.232;6.556;2023-11-21T01:32:36;20.85;;;6.18;;
82473;SDS011;72350;53.232;6.556;2023-11-21T01:35:07;21.55;;;6.35;;
82473;SDS011;72350;53.232;6.556;2023-11-21T01:37:36;19.33;;;6.15;;
82473;SDS011;72350;53.232;6.556;2023-11-21T01:40:04;29.08;;;6.95;;
82473;SDS011;72350;53.232;6.556;2023-11-21T01:42:36;18.58;;;6.22;;
82473;SDS011;72350;53.232;6.556;2023-11-21T01:45:06;22.92;;;7.07;;
82473;SDS011;72350;53.232;6.556;2023-11-21T01:47:36;21.98;;;6.30;;
82473;SDS011;72350;53.232;6.556;2023-11-21T01:50:04;24.95;;;7.22;;
82473;SDS011;72350;53.232;6.556;2023-11-21T01:52:38;21.52;;;8.13;;
82473;SDS011;72350;53.232;6.556;2023-11-21T01:55:07;30.52;;;7.72;;
82473;SDS011;72350;53.232;6.556;2023-11-21T01:57:36;21.30;;;7.60;;
82473;SDS011;72350;53.232;6.556;2023-11-21T02:00:05;24.70;;;7.72;;
82473;SDS011;72350;53.232;6.556;2023-11-21T02:02:42;22.90;;;7.68;;
82473;SDS011;72350;53.232;6.556;2023-11-21T02:05:12;27.92;;;7.25;;
82473;SDS011;72350;53.232;6.556;2023-11-21T02:07:42;22.02;;;7.25;;
82473;SDS011;72350;53.232;6.556;2023-11-21T02:10:11;25.55;;;9.30;;
82473;SDS011;72350;53.232;6.556;2023-11-21T02:12:41;19.73;;;7.30;;
82473;SDS011;72350;53.232;6.556;2023-11-21T02:15:10;30.52;;;8.40;;
82473;SDS011;72350;53.232;6.556;2023-11-21T02:17:46;22.85;;;7.22;;
82473;SDS011;72350;53.232;6.556;2023-11-21T02:20:20;26.42;;;8.70;;
82473;SDS011;72350;53.232;6.556;2023-11-21T02:25:24;25.63;;;8.27;;
82473;SDS011;72350;53.232;6.556;2023-11-21T02:27:54;23.05;;;7.82;;
82473;SDS011;72350;53.232;6.556;2023-11-21T02:30:22;25.27;;;8.05;;
82473;SDS011;72350;53.232;6.556;2023-11-21T02:32:51;24.05;;;8.52;;
82473;SDS011;72350;53.232;6.556;2023-11-21T02:35:20;24.30;;;8.98;;
82473;SDS011;72350;53.232;6.556;2023-11-21T02:37:48;24.10;;;9.68;;
82473;SDS011;72350;53.232;6.556;2023-11-21T02:40:18;23.13;;;8.75;;
82473;SDS011;72350;53.232;6.556;2023-11-21T02:42:47;25.27;;;8.25;;
82473;SDS011;72350;53.232;6.556;2023-11-21T02:45:18;31.95;;;8.77;;
82473;SDS011;72350;53.232;6.556;2023-11-21T02:47:47;23.35;;;8.38;;
82473;SDS011;72350;53.232;6.556;2023-11-21T02:50:16;24.48;;;8.70;;
82473;SDS011;72350;53.232;6.556;2023-11-21T02:52:45;23.85;;;8.07;;
82473;SDS011;72350;53.232;6.556;2023-11-21T02:55:13;21.05;;;8.07;;
82473;SDS011;72350;53.232;6.556;2023-11-21T02:57:43;24.77;;;8.43;;
82473;SDS011;72350;53.232;6.556;2023-11-21T03:00:10;18.17;;;8.25;;
82473;SDS011;72350;53.232;6.556;2023-11-21T03:02:41;19.42;;;7.95;;
82473;SDS011;72350;53.232;6.556;2023-11-21T03:05:10;22.85;;;8.13;;
82473;SDS011;72350;53.232;6.556;2023-11-21T03:07:38;23.27;;;8.57;;
82473;SDS011;72350;53.232;6.556;2023-11-21T03:10:07;34.33;;;9.40;;
82473;SDS011;72350;53.232;6.556;2023-11-21T03:12:37;21.77;;;9.25;;
82473;SDS011;72350;53.232;6.556;2023-11-21T03:15:07;29.75;;;8.68;;
82473;SDS011;72350;53.232;6.556;2023-11-21T03:17:36;32.90;;;9.63;;
82473;SDS011;72350;53.232;6.556;2023-11-21T03:20:04;34.38;;;9.73;;
82473;SDS011;72350;53.232;6.556;2023-11-21T03:22:37;30.02;;;8.68;;
82473;SDS011;72350;53.232;6.556;2023-11-21T03:25:05;34.03;;;10.07;;
82473;SDS011;72350;53.232;6.556;2023-11-21T03:27:37;39.72;;;10.18;;
82473;SDS011;72350;53.232;6.556;2023-11-21T03:30:08;28.00;;;8.68;;
82473;SDS011;72350;53.232;6.556;2023-11-21T03:32:37;26.77;;;9.13;;
82473;SDS011;72350;53.232;6.556;2023-11-21T03:35:05;24.75;;;8.93;;
82473;SDS011;72350;53.232;6.556;2023-11-21T03:37:33;30.95;;;9.88;;
82473;SDS011;72350;53.232;6.556;2023-11-21T03:40:01;25.48;;;9.70;;
82473;SDS011;72350;53.232;6.556;2023-11-21T03:42:30;27.15;;;8.98;;
82473;SDS011;72350;53.232;6.556;2023-11-21T03:44:58;27.38;;;8.80;;
82473;SDS011;72350;53.232;6.556;2023-11-21T03:47:27;23.27;;;8.48;;
82473;SDS011;72350;53.232;6.556;2023-11-21T03:49:55;29.45;;;9.45;;
82473;SDS011;72350;53.232;6.556;2023-11-21T03:52:23;19.58;;;7.57;;
82473;SDS011;72350;53.232;6.556;2023-11-21T03:54:52;23.48;;;8.90;;
82473;SDS011;72350;53.232;6.556;2023-11-21T03:57:20;21.85;;;8.13;;
82473;SDS011;72350;53.232;6.556;2023-11-21T03:59:47;25.73;;;9.40;;
82473;SDS011;72350;53.232;6.556;2023-11-21T04:02:15;25.92;;;9.75;;
82473;SDS011;72350;53.232;6.556;2023-11-21T04:04:45;23.65;;;8.55;;
82473;SDS011;72350;53.232;6.556;2023-11-21T04:07:13;25.20;;;9.32;;
82473;SDS011;72350;53.232;6.556;2023-11-21T04:09:41;24.52;;;10.05;;
82473;SDS011;72350;53.232;6.556;2023-11-21T04:12:09;33.88;;;10.95;;
82473;SDS011;72350;53.232;6.556;2023-11-21T04:14:36;30.25;;;10.38;;
82473;SDS011;72350;53.232;6.556;2023-11-21T04:17:05;33.35;;;11.43;;
82473;SDS011;72350;53.232;6.556;2023-11-21T04:19:33;30.23;;;11.02;;
82473;SDS011;72350;53.232;6.556;2023-11-21T04:22:03;26.30;;;10.77;;
82473;SDS011;72350;53.232;6.556;2023-11-21T04:24:31;26.40;;;10.65;;
82473;SDS011;72350;53.232;6.556;2023-11-21T04:26:58;26.70;;;10.43;;
82473;SDS011;72350;53.232;6.556;2023-11-21T04:29:26;22.83;;;9.77;;
82473;SDS011;72350;53.232;6.556;2023-11-21T04:31:54;29.25;;;10.98;;
82473;SDS011;72350;53.232;6.556;2023-11-21T04:34:22;22.55;;;10.80;;
82473;SDS011;72350;53.232;6.556;2023-11-21T04:36:50;24.77;;;10.10;;
82473;SDS011;72350;53.232;6.556;2023-11-21T04:39:19;25.30;;;10.18;;
82473;SDS011;72350;53.232;6.556;2023-11-21T04:41:47;21.00;;;9.63;;
82473;SDS011;72350;53.232;6.556;2023-11-21T04:44:14;20.75;;;10.32;;
82473;SDS011;72350;53.232;6.556;2023-11-21T04:46:43;22.05;;;9.18;;
82473;SDS011;72350;53.232;6.556;2023-11-21T04:49:11;29.50;;;10.65;;
82473;SDS011;72350;53.232;6.556;2023-11-21T04:51:39;21.25;;;9.80;;
82473;SDS011;72350;53.232;6.556;2023-11-21T04:54:06;29.73;;;10.30;;
82473;SDS011;72350;53.232;6.556;2023-11-21T04:56:36;34.05;;;10.07;;
82473;SDS011;72350;53.232;6.556;2023-11-21T04:59:03;30.17;;;10.70;;
82473;SDS011;72350;53.232;6.556;2023-11-21T05:01:31;33.95;;;10.98;;
82473;SDS011;72350;53.232;6.556;2023-11-21T05:03:59;38.50;;;11.73;;
82473;SDS011;72350;53.232;6.556;2023-11-21T05:06:27;27.40;;;10.55;;
82473;SDS011;72350;53.232;6.556;2023-11-21T05:08:55;26.23;;;11.48;;
82473;SDS011;72350;53.232;6.556;2023-11-21T05:11:23;27.80;;;10.25;;
82473;SDS011;72350;53.232;6.556;2023-11-21T05:13:54;22.98;;;9.50;;
82473;SDS011;72350;53.232;6.556;2023-11-21T05:16:25;27.55;;;10.10;;
82473;SDS011;72350;53.232;6.556;2023-11-21T05:18:54;21.73;;;9.35;;
82473;SDS011;72350;53.232;6.556;2023-11-21T05:21:26;16.52;;;8.70;;
82473;SDS011;72350;53.232;6.556;2023-11-21T05:23:56;23.98;;;10.40;;
82473;SDS011;72350;53.232;6.556;2023-11-21T05:26:23;18.50;;;8.80;;
82473;SDS011;72350;53.232;6.556;2023-11-21T05:28:51;19.40;;;9.43;;
82473;SDS011;72350;53.232;6.556;2023-11-21T05:31:20;22.42;;;10.32;;
82473;SDS011;72350;53.232;6.556;2023-11-21T05:33:48;19.83;;;9.15;;
82473;SDS011;72350;53.232;6.556;2023-11-21T05:36:16;20.58;;;10.23;;
82473;SDS011;72350;53.232;6.556;2023-11-21T05:38:44;22.90;;;10.93;;
82473;SDS011;72350;53.232;6.556;2023-11-21T05:41:12;23.02;;;10.63;;
82473;SDS011;72350;53.232;6.556;2023-11-21T05:43:40;22.77;;;10.60;;
82473;SDS011;72350;53.232;6.556;2023-11-21T05:46:08;26.17;;;11.52;;
82473;SDS011;72350;53.232;6.556;2023-11-21T05:48:37;25.10;;;11.95;;
82473;SDS011;72350;53.232;6.556;2023-11-21T05:51:06;26.75;;;12.27;;
82473;SDS011;72350;53.232;6.556;2023-11-21T05:53:34;23.10;;;13.00;;
82473;SDS011;72350;53.232;6.556;2023-11-21T05:56:02;28.17;;;12.98;;
82473;SDS011;72350;53.232;6.556;2023-11-21T05:58:31;30.60;;;14.25;;
82473;SDS011;72350;53.232;6.556;2023-11-21T06:00:59;25.25;;;14.27;;
82473;SDS011;72350;53.232;6.556;2023-11-21T06:03:26;25.10;;;13.63;;
82473;SDS011;72350;53.232;6.556;2023-11-21T06:05:56;30.60;;;14.57;;
82473;SDS011;72350;53.232;6.556;2023-11-21T06:08:24;25.30;;;14.77;;
82473;SDS011;72350;53.232;6.556;2023-11-21T06:10:52;28.67;;;15.60;;
82473;SDS011;72350;53.232;6.556;2023-11-21T06:13:20;29.80;;;16.02;;
82473;SDS011;72350;53.232;6.556;2023-11-21T06:15:50;33.47;;;16.80;;
82473;SDS011;72350;53.232;6.556;2023-11-21T06:18:19;37.17;;;16.92;;
82473;SDS011;72350;53.232;6.556;2023-11-21T06:20:47;34.58;;;16.73;;
82473;SDS011;72350;53.232;6.556;2023-11-21T06:23:16;36.40;;;17.42;;
82473;SDS011;72350;53.232;6.556;2023-11-21T06:25:44;31.52;;;14.85;;
82473;SDS011;72350;53.232;6.556;2023-11-21T06:28:12;32.60;;;16.40;;
82473;SDS011;72350;53.232;6.556;2023-11-21T06:30:41;28.88;;;14.65;;
82473;SDS011;72350;53.232;6.556;2023-11-21T06:33:10;29.40;;;14.73;;
82473;SDS011;72350;53.232;6.556;2023-11-21T06:35:38;27.52;;;13.40;;
82473;SDS011;72350;53.232;6.556;2023-11-21T06:38:06;24.52;;;13.90;;
82473;SDS011;72350;53.232;6.556;2023-11-21T06:40:36;23.23;;;12.60;;
82473;SDS011;72350;53.232;6.556;2023-11-21T06:43:04;19.00;;;10.98;;
82473;SDS011;72350;53.232;6.556;2023-11-21T06:45:33;20.05;;;11.50;;
82473;SDS011;72350;53.232;6.556;2023-11-21T06:48:01;23.95;;;13.18;;
82473;SDS011;72350;53.232;6.556;2023-11-21T06:50:29;20.95;;;13.65;;
82473;SDS011;72350;53.232;6.556;2023-11-21T06:52:57;28.20;;;16.63;;
82473;SDS011;72350;53.232;6.556;2023-11-21T06:55:25;22.60;;;14.80;;
82473;SDS011;72350;53.232;6.556;2023-11-21T06:57:55;24.20;;;14.80;;
82473;SDS011;72350;53.232;6.556;2023-11-21T07:00:24;25.90;;;14.13;;
82473;SDS011;72350;53.232;6.556;2023-11-21T07:02:54;26.83;;;16.90;;
82473;SDS011;72350;53.232;6.556;2023-11-21T07:05:22;30.25;;;18.88;;
82473;SDS011;72350;53.232;6.556;2023-11-21T07:07:50;26.20;;;16.25;;
82473;SDS011;72350;53.232;6.556;2023-11-21T07:10:20;31.00;;;17.73;;
82473;SDS011;72350;53.232;6.556;2023-11-21T07:12:48;31.50;;;19.13;;
82473;SDS011;72350;53.232;6.556;2023-11-21T07:15:19;34.53;;;20.40;;
82473;SDS011;72350;53.232;6.556;2023-11-21T07:17:47;36.20;;;19.77;;
82473;SDS011;72350;53.232;6.556;2023-11-21T07:20:15;41.50;;;23.17;;
82473;SDS011;72350;53.232;6.556;2023-11-21T07:22:44;35.20;;;19.10;;
82473;SDS011;72350;53.232;6.556;2023-11-21T07:25:12;33.67;;;18.95;;
82473;SDS011;72350;53.232;6.556;2023-11-21T07:27:40;36.72;;;21.73;;
82473;SDS011;72350;53.232;6.556;2023-11-21T07:30:08;65.93;;;35.78;;
82473;SDS011;72350;53.232;6.556;2023-11-21T07:32:38;41.60;;;24.92;;
82473;SDS011;72350;53.232;6.556;2023-11-21T07:35:07;29.15;;;18.25;;
82473;SDS011;72350;53.232;6.556;2023-11-21T07:37:36;32.50;;;18.42;;
82473;SDS011;72350;53.232;6.556;2023-11-21T07:40:04;31.65;;;18.67;;
82473;SDS011;72350;53.232;6.556;2023-11-21T07:42:35;35.22;;;20.83;;
82473;SDS011;72350;53.232;6.556;2023-11-21T07:45:04;26.77;;;16.65;;
82473;SDS011;72350;53.232;6.556;2023-11-21T07:47:33;38.63;;;22.40;;
82473;SDS011;72350;53.232;6.556;2023-11-21T07:50:03;30.25;;;18.02;;
82473;SDS011;72350;53.232;6.556;2023-11-21T07:52:34;25.83;;;17.10;;
82473;SDS011;72350;53.232;6.556;2023-11-21T07:55:02;31.30;;;19.42;;
82473;SDS011;72350;53.232;6.556;2023-11-21T07:57:30;25.92;;;16.02;;
82473;SDS011;72350;53.232;6.556;2023-11-21T07:59:57;25.45;;;16.80;;
82473;SDS011;72350;53.232;6.556;2023-11-21T08:02:26;26.83;;;17.60;;
82473;SDS011;72350;53.232;6.556;2023-11-21T08:04:55;26.27;;;17.35;;
82473;SDS011;72350;53.232;6.556;2023-11-21T08:07:25;27.50;;;18.20;;
82473;SDS011;72350;53.232;6.556;2023-11-21T08:09:53;32.00;;;19.50;;
82473;SDS011;72350;53.232;6.556;2023-11-21T08:12:20;35.28;;;21.25;;
82473;SDS011;72350;53.232;6.556;2023-11-21T08:14:48;32.95;;;20.55;;
82473;SDS011;72350;53.232;6.556;2023-11-21T08:17:16;26.52;;;16.83;;
82473;SDS011;72350;53.232;6.556;2023-11-21T08:19:46;31.85;;;19.50;;
82473;SDS011;72350;53.232;6.556;2023-11-21T08:22:16;29.80;;;19.00;;
82473;SDS011;72350;53.232;6.556;2023-11-21T08:24:46;37.35;;;22.63;;
82473;SDS011;72350;53.232;6.556;2023-11-21T08:27:13;36.45;;;19.90;;
82473;SDS011;72350;53.232;6.556;2023-11-21T08:29:43;26.38;;;18.05;;
82473;SDS011;72350;53.232;6.556;2023-11-21T08:32:11;28.65;;;18.25;;
82473;SDS011;72350;53.232;6.556;2023-11-21T08:34:39;23.25;;;16.38;;
82473;SDS011;72350;53.232;6.556;2023-11-21T08:37:09;24.23;;;15.73;;
82473;SDS011;72350;53.232;6.556;2023-11-21T08:39:37;27.27;;;17.30;;
82473;SDS011;72350;53.232;6.556;2023-11-21T08:42:06;23.08;;;15.18;;
82473;SDS011;72350;53.232;6.556;2023-11-21T08:44:34;22.23;;;14.85;;
82473;SDS011;72350;53.232;6.556;2023-11-21T08:47:02;21.40;;;14.63;;
82473;SDS011;72350;53.232;6.556;2023-11-21T08:49:33;22.10;;;15.15;;
82473;SDS011;72350;53.232;6.556;2023-11-21T08:52:01;22.77;;;15.15;;
82473;SDS011;72350;53.232;6.556;2023-11-21T08:54:31;23.70;;;14.98;;
82473;SDS011;72350;53.232;6.556;2023-11-21T08:57:00;20.77;;;14.80;;
82473;SDS011;72350;53.232;6.556;2023-11-21T08:59:30;21.05;;;15.20;;
82473;SDS011;72350;53.232;6.556;2023-11-21T09:01:57;18.10;;;12.75;;
82473;SDS011;72350;53.232;6.556;2023-11-21T09:04:25;19.48;;;11.55;;
82473;SDS011;72350;53.232;6.556;2023-11-21T09:06:54;17.83;;;12.95;;
82473;SDS011;72350;53.232;6.556;2023-11-21T09:09:21;20.60;;;13.52;;
82473;SDS011;72350;53.232;6.556;2023-11-21T09:11:51;20.55;;;13.65;;
82473;SDS011;72350;53.232;6.556;2023-11-21T09:14:19;17.42;;;12.77;;
82473;SDS011;72350;53.232;6.556;2023-11-21T09:16:48;15.73;;;11.80;;
82473;SDS011;72350;53.232;6.556;2023-11-21T09:19:17;15.45;;;11.68;;
82473;SDS011;72350;53.232;6.556;2023-11-21T09:21:44;18.10;;;12.77;;
82473;SDS011;72350;53.232;6.556;2023-11-21T09:24:12;17.73;;;13.77;;
82473;SDS011;72350;53.232;6.556;2023-11-21T09:26:40;17.33;;;12.25;;
82473;SDS011;72350;53.232;6.556;2023-11-21T09:29:08;16.35;;;11.45;;
82473;SDS011;72350;53.232;6.556;2023-11-21T09:31:36;16.30;;;10.88;;
82473;SDS011;72350;53.232;6.556;2023-11-21T09:34:06;15.30;;;10.90;;
82473;SDS011;72350;53.232;6.556;2023-11-21T09:36:34;23.27;;;11.35;;
82473;SDS011;72350;53.232;6.556;2023-11-21T09:39:02;15.10;;;9.98;;
82473;SDS011;72350;53.232;6.556;2023-11-21T09:41:33;12.70;;;8.95;;
82473;SDS011;72350;53.232;6.556;2023-11-21T09:44:11;12.25;;;9.40;;
82473;SDS011;72350;53.232;6.556;2023-11-21T09:46:43;13.80;;;10.25;;
82473;SDS011;72350;53.232;6.556;2023-11-21T09:49:17;16.38;;;11.25;;
82473;SDS011;72350;53.232;6.556;2023-11-21T09:51:51;12.55;;;8.98;;
82473;SDS011;72350;53.232;6.556;2023-11-21T09:54:22;14.35;;;8.70;;
82473;SDS011;72350;53.232;6.556;2023-11-21T09:56:51;11.63;;;8.77;;
82473;SDS011;72350;53.232;6.556;2023-11-21T09:59:19;11.95;;;8.60;;
82473;SDS011;72350;53.232;6.556;2023-11-21T10:01:47;12.68;;;9.35;;
82473;SDS011;72350;53.232;6.556;2023-11-21T10:04:18;10.90;;;7.65;;
82473;SDS011;72350;53.232;6.556;2023-11-21T10:06:47;12.18;;;8.10;;
82473;SDS011;72350;53.232;6.556;2023-11-21T10:09:15;11.82;;;8.07;;
82473;SDS011;72350;53.232;6.556;2023-11-21T10:11:47;10.25;;;8.02;;
82473;SDS011;72350;53.232;6.556;2023-11-21T10:14:16;11.55;;;7.97;;
82473;SDS011;72350;53.232;6.556;2023-11-21T10:16:48;16.48;;;8.55;;
82473;SDS011;72350;53.232;6.556;2023-11-21T10:19:18;13.50;;;8.98;;
82473;SDS011;72350;53.232;6.556;2023-11-21T10:21:48;10.65;;;7.57;;
82473;SDS011;72350;53.232;6.556;2023-11-21T10:24:17;11.15;;;7.43;;
82473;SDS011;72350;53.232;6.556;2023-11-21T10:26:45;10.50;;;7.35;;
82473;SDS011;72350;53.232;6.556;2023-11-21T10:29:19;10.30;;;7.68;;
82473;SDS011;72350;53.232;6.556;2023-11-21T10:31:49;10.10;;;7.45;;
82473;SDS011;72350;53.232;6.556;2023-11-21T10:34:20;9.50;;;7.00;;
82473;SDS011;72350;53.232;6.556;2023-11-21T10:36:48;10.65;;;6.63;;
82473;SDS011;72350;53.232;6.556;2023-11-21T10:39:16;11.73;;;7.25;;
82473;SDS011;72350;53.232;6.556;2023-11-21T10:41:46;10.43;;;7.15;;
82473;SDS011;72350;53.232;6.556;2023-11-21T10:44:15;12.05;;;7.20;;
82473;SDS011;72350;53.232;6.556;2023-11-21T10:46:48;12.52;;;7.75;;
82473;SDS011;72350;53.232;6.556;2023-11-21T10:49:19;11.57;;;7.20;;
82473;SDS011;72350;53.232;6.556;2023-11-21T10:51:47;10.10;;;7.80;;
82473;SDS011;72350;53.232;6.556;2023-11-21T10:54:18;11.40;;;7.70;;
82473;SDS011;72350;53.232;6.556;2023-11-21T10:56:48;10.05;;;7.32;;
82473;SDS011;72350;53.232;6.556;2023-11-21T10:59:19;11.47;;;8.07;;
82473;SDS011;72350;53.232;6.556;2023-11-21T11:01:51;12.98;;;7.70;;
82473;SDS011;72350;53.232;6.556;2023-11-21T11:04:22;9.05;;;7.10;;
82473;SDS011;72350;53.232;6.556;2023-11-21T11:06:54;10.48;;;7.30;;
82473;SDS011;72350;53.232;6.556;2023-11-21T11:09:24;10.77;;;7.13;;
82473;SDS011;72350;53.232;6.556;2023-11-21T11:11:52;11.25;;;7.25;;
82473;SDS011;72350;53.232;6.556;2023-11-21T11:14:20;10.30;;;7.15;;
82473;SDS011;72350;53.232;6.556;2023-11-21T11:16:53;10.75;;;7.47;;
82473;SDS011;72350;53.232;6.556;2023-11-21T11:19:24;10.23;;;7.25;;
82473;SDS011;72350;53.232;6.556;2023-11-21T11:21:57;9.55;;;7.15;;
82473;SDS011;72350;53.232;6.556;2023-11-21T11:24:44;9.75;;;6.95;;
82473;SDS011;72350;53.232;6.556;2023-11-21T11:27:30;9.93;;;7.43;;
82473;SDS011;72350;53.232;6.556;2023-11-21T11:30:08;10.00;;;6.97;;
82473;SDS011;72350;53.232;6.556;2023-11-21T11:32:47;11.38;;;7.28;;
82473;SDS011;72350;53.232;6.556;2023-11-21T11:35:26;10.65;;;7.20;;
82473;SDS011;72350;53.232;6.556;2023-11-21T11:38:01;10.40;;;6.93;;
82473;SDS011;72350;53.232;6.556;2023-11-21T11:40:38;9.15;;;7.18;;
82473;SDS011;72350;53.232;6.556;2023-11-21T11:43:07;10.98;;;7.00;;
82473;SDS011;72350;53.232;6.556;2023-11-21T11:45:36;10.43;;;6.60;;
82473;SDS011;72350;53.232;6.556;2023-11-21T11:48:08;11.05;;;6.88;;
82473;SDS011;72350;53.232;6.556;2023-11-21T11:50:43;9.23;;;6.40;;
82473;SDS011;72350;53.232;6.556;2023-11-21T11:53:33;8.48;;;5.90;;
82473;SDS011;72350;53.232;6.556;2023-11-21T11:58:52;6.75;;;6.05;;
82473;SDS011;72350;53.232;6.556;2023-11-21T12:01:21;8.95;;;6.63;;
82473;SDS011;72350;53.232;6.556;2023-11-21T12:06:53;9.27;;;6.20;;
82473;SDS011;72350;53.232;6.556;2023-11-21T12:09:21;8.13;;;6.40;;
82473;SDS011;72350;53.232;6.556;2023-11-21T12:11:50;9.30;;;6.13;;
82473;SDS011;72350;53.232;6.556;2023-11-21T12:14:18;11.90;;;6.07;;
82473;SDS011;72350;53.232;6.556;2023-11-21T12:16:46;9.30;;;6.65;;
82473;SDS011;72350;53.232;6.556;2023-11-21T12:19:14;9.70;;;6.68;;
82473;SDS011;72350;53.232;6.556;2023-11-21T12:21:42;10.40;;;5.90;;
82473;SDS011;72350;53.232;6.556;2023-11-21T12:24:12;10.70;;;7.35;;
82473;SDS011;72350;53.232;6.556;2023-11-21T12:26:41;11.52;;;6.97;;
82473;SDS011;72350;53.232;6.556;2023-11-21T12:29:09;11.07;;;7.28;;
82473;SDS011;72350;53.232;6.556;2023-11-21T12:31:37;11.13;;;6.82;;
82473;SDS011;72350;53.232;6.556;2023-11-21T12:34:05;9.05;;;6.75;;
82473;SDS011;72350;53.232;6.556;2023-11-21T12:36:34;8.75;;;6.82;;
82473;SDS011;72350;53.232;6.556;2023-11-21T12:39:02;10.63;;;6.60;;
82473;SDS011;72350;53.232;6.556;2023-11-21T12:41:31;10.27;;;6.88;;
82473;SDS011;72350;53.232;6.556;2023-11-21T12:43:59;10.45;;;6.75;;
82473;SDS011;72350;53.232;6.556;2023-11-21T12:46:27;9.70;;;6.70;;
82473;SDS011;72350;53.232;6.556;2023-11-21T12:48:57;16.55;;;6.22;;
82473;SDS011;72350;53.232;6.556;2023-11-21T12:51:25;9.63;;;6.32;;
82473;SDS011;72350;53.232;6.556;2023-11-21T12:53:53;9.50;;;6.65;;
82473;SDS011;72350;53.232;6.556;2023-11-21T12:56:21;8.98;;;6.50;;
82473;SDS011;72350;53.232;6.556;2023-11-21T12:58:53;10.93;;;7.65;;
82473;SDS011;72350;53.232;6.556;2023-11-21T13:01:25;11.20;;;6.85;;
82473;SDS011;72350;53.232;6.556;2023-11-21T13:03:56;11.82;;;7.00;;
82473;SDS011;72350;53.232;6.556;2023-11-21T13:06:24;10.98;;;6.15;;
82473;SDS011;72350;53.232;6.556;2023-11-21T13:08:53;12.32;;;6.65;;
82473;SDS011;72350;53.232;6.556;2023-11-21T13:11:23;10.63;;;6.38;;
82473;SDS011;72350;53.232;6.556;2023-11-21T13:13:54;10.88;;;6.03;;
82473;SDS011;72350;53.232;6.556;2023-11-21T13:16:23;9.70;;;6.50;;
82473;SDS011;72350;53.232;6.556;2023-11-21T13:18:50;9.85;;;6.13;;
82473;SDS011;72350;53.232;6.556;2023-11-21T13:21:18;9.32;;;6.78;;
82473;SDS011;72350;53.232;6.556;2023-11-21T13:23:48;8.18;;;5.50;;
82473;SDS011;72350;53.232;6.556;2023-11-21T13:26:19;7.22;;;5.85;;
82473;SDS011;72350;53.232;6.556;2023-11-21T13:28:49;11.07;;;5.80;;
82473;SDS011;72350;53.232;6.556;2023-11-21T13:31:19;6.57;;;5.30;;
82473;SDS011;72350;53.232;6.556;2023-11-21T13:33:53;8.73;;;5.13;;
82473;SDS011;72350;53.232;6.556;2023-11-21T13:36:25;9.07;;;5.47;;
82473;SDS011;72350;53.232;6.556;2023-11-21T13:38:57;8.02;;;5.18;;
82473;SDS011;72350;53.232;6.556;2023-11-21T13:41:25;8.13;;;5.43;;
82473;SDS011;72350;53.232;6.556;2023-11-21T13:43:57;11.32;;;6.00;;
82473;SDS011;72350;53.232;6.556;2023-11-21T13:46:37;9.93;;;5.43;;
82473;SDS011;72350;53.232;6.556;2023-11-21T13:49:05;10.20;;;5.03;;
82473;SDS011;72350;53.232;6.556;2023-11-21T13:51:36;11.73;;;4.93;;
82473;SDS011;72350;53.232;6.556;2023-11-21T13:54:08;7.40;;;4.75;;
82473;SDS011;72350;53.232;6.556;2023-11-21T13:56:37;6.55;;;4.53;;
82473;SDS011;72350;53.232;6.556;2023-11-21T13:59:06;12.00;;;5.40;;
82473;SDS011;72350;53.232;6.556;2023-11-21T14:01:46;7.20;;;3.97;;
82473;SDS011;72350;53.232;6.556;2023-11-21T14:04:24;9.20;;;4.93;;
82473;SDS011;72350;53.232;6.556;2023-11-21T14:07:13;5.32;;;4.20;;
82473;SDS011;72350;53.232;6.556;2023-11-21T14:09:58;10.55;;;4.35;;
82473;SDS011;72350;53.232;6.556;2023-11-21T14:12:27;5.45;;;3.90;;
82473;SDS011;72350;53.232;6.556;2023-11-21T14:14:55;8.35;;;4.03;;
82473;SDS011;72350;53.232;6.556;2023-11-21T14:17:24;5.40;;;4.47;;
82473;SDS011;72350;53.232;6.556;2023-11-21T14:19:53;7.03;;;4.30;;
82473;SDS011;72350;53.232;6.556;2023-11-21T14:22:22;6.15;;;4.20;;
82473;SDS011;72350;53.232;6.556;2023-11-21T14:24:52;8.55;;;4.20;;
82473;SDS011;72350;53.232;6.556;2023-11-21T14:27:22;11.32;;;4.00;;
82473;SDS011;72350;53.232;6.556;2023-11-21T14:29:50;8.65;;;4.28;;
82473;SDS011;72350;53.232;6.556;2023-11-21T14:32:19;6.82;;;4.13;;
82473;SDS011;72350;53.232;6.556;2023-11-21T14:34:49;6.07;;;3.75;;
82473;SDS011;72350;53.232;6.556;2023-11-21T14:37:17;8.95;;;4.00;;
82473;SDS011;72350;53.232;6.556;2023-11-21T14:39:46;8.15;;;4.07;;
82473;SDS011;72350;53.232;6.556;2023-11-21T14:42:16;7.97;;;3.80;;
82473;SDS011;72350;53.232;6.556;2023-11-21T14:44:50;5.22;;;3.67;;
82473;SDS011;72350;53.232;6.556;2023-11-21T14:47:19;9.07;;;3.92;;
82473;SDS011;72350;53.232;6.556;2023-11-21T14:49:53;6.32;;;4.13;;
82473;SDS011;72350;53.232;6.556;2023-11-21T14:52:23;6.22;;;3.83;;